Terminal Aerodrome Forecast
Issued by NWS

Home | Current Version | Previous Version | Text Only | Print | Product List | Glossary Off
Versions: 1 2 3 4 5 6 7 8 9 10 11 12 13 14 15

173
FTUS43 KTOP 242320
TAFMHK
TAF
KMHK 242320Z 2500/2524 15008KT P6SM VCTS SCT030CB BKN080
      TEMPO 2500/2501 22015G30KT 2SM TSRA BKN035CB
     FM250700 18007KT P6SM SCT015 BKN035
     FM251100 35008KT P6SM BKN050=

USA.gov is the U.S. government's official web portal to all federal, state and local government web resources and services.